This is the latest recevied weather packets stored in our database for station/object OH2HCY-3. If no packets are shown the sender has not sent any weather packets the latest 10 day(s).
| Time | Temp. | Humidity | Pressure | Rain* | Wind** | Luminosity | Snow |
|---|---|---|---|---|---|---|---|
| 1788143378 | 16.11° C | 89% | 1005.6 hPa | - | - | - | - |
| 1788142278 | 16.67° C | 88% | 1005.7 hPa | - | - | - | - |
| 1788120973 | 16.11° C | 90% | 1008 hPa | - | - | - | - |
| 1788119863 | 15.56° C | 91% | 1008.1 hPa | - | - | - | - |
| 1788118843 | 15.56° C | 91% | 1008 hPa | - | - | - | - |
| 1788113478 | 15.56° C | 89% | 1008.6 hPa | - | - | - | - |
| 1788108153 | 16.67° C | 85% | 1008.5 hPa | - | - | - | - |
| 1788104868 | 17.22° C | 82% | 1008.5 hPa | - | - | - | - |
| 1788103688 | 17.22° C | 82% | 1008.6 hPa | - | - | - | - |
| 1788101513 | 17.78° C | 82% | 1008.5 hPa | - | - | - | - |
| 1788100473 | 17.78° C | 80% | 1008.4 hPa | - | - | - | - |
| 1788099318 | 17.78° C | 81% | 1008.4 hPa | - | - | - | - |
| 1788098233 | 18.33° C | 79% | 1008.2 hPa | - | - | - | - |
| 1788097063 | 18.33° C | 78% | 1008.1 hPa | - | - | - | - |
| 1788095962 | - | - | - | - | - | - | - |
| 1788095958 | 18.33° C | 80% | 1008.1 hPa | - | - | - | - |
| 1788094966 | 17.78° C | - | - | - | - | - | - |
| 1788094963 | 17.78° C | 80% | 1008 hPa | - | - | - | - |
| 1788092718 | 18.33° C | 79% | 1007.9 hPa | - | - | - | - |
| 1788091688 | 18.33° C | 79% | 1007.9 hPa | - | - | - | - |
| 1788090648 | 18.33° C | 79% | 1007.9 hPa | - | - | - | - |
| 1788088601 | 18.33° C | 79% | 1007.9 hPa | - | - | - | - |
| 1788087438 | 17.78° C | 80% | 1007.9 hPa | - | - | - | - |
| 1788086423 | 17.78° C | 78% | 1007.9 hPa | - | - | - | - |
| 1788085426 | 17.78° C | 78% | 1007.8 hPa | - | - | - | - |
* Rain since midnight (hover to see other rain measurements)
** Current wind speed in m/s (hover to see current wind gust speed)